sensor_id;sensor_type;location;lat;lon;timestamp;temperature;humidity
1766;DHT22;880;52.452;8.656;2023-07-28T00:00:57;18.30;99.90
1766;DHT22;880;52.452;8.656;2023-07-28T00:03:24;18.30;99.90
1766;DHT22;880;52.452;8.656;2023-07-28T00:05:51;18.30;99.90
1766;DHT22;880;52.452;8.656;2023-07-28T00:08:18;18.30;99.90
1766;DHT22;880;52.452;8.656;2023-07-28T00:11:11;18.40;99.90
1766;DHT22;880;52.452;8.656;2023-07-28T00:13:41;18.40;99.90
1766;DHT22;880;52.452;8.656;2023-07-28T00:16:09;18.30;99.90
1766;DHT22;880;52.452;8.656;2023-07-28T00:18:36;18.30;99.90
1766;DHT22;880;52.452;8.656;2023-07-28T00:21:04;18.30;99.90
1766;DHT22;880;52.452;8.656;2023-07-28T00:23:32;18.30;99.90
1766;DHT22;880;52.452;8.656;2023-07-28T00:25:59;18.30;99.90
1766;DHT22;880;52.452;8.656;2023-07-28T00:28:26;18.30;99.90
1766;DHT22;880;52.452;8.656;2023-07-28T00:30:53;18.20;99.90
1766;DHT22;880;52.452;8.656;2023-07-28T00:33:20;18.30;99.90
1766;DHT22;880;52.452;8.656;2023-07-28T00:35:47;18.30;99.90
1766;DHT22;880;52.452;8.656;2023-07-28T00:38:14;18.30;99.90
1766;DHT22;880;52.452;8.656;2023-07-28T00:40:41;18.30;99.90
1766;DHT22;880;52.452;8.656;2023-07-28T00:43:08;18.30;99.90
1766;DHT22;880;52.452;8.656;2023-07-28T00:45:35;18.20;99.90
1766;DHT22;880;52.452;8.656;2023-07-28T00:48:06;18.30;99.90
1766;DHT22;880;52.452;8.656;2023-07-28T00:50:39;18.30;99.90
1766;DHT22;880;52.452;8.656;2023-07-28T00:53:07;18.30;99.90
1766;DHT22;880;52.452;8.656;2023-07-28T00:55:35;18.30;99.90
1766;DHT22;880;52.452;8.656;2023-07-28T00:58:02;18.30;99.90
1766;DHT22;880;52.452;8.656;2023-07-28T01:00:29;18.20;99.90
1766;DHT22;880;52.452;8.656;2023-07-28T01:02:56;18.30;99.90
1766;DHT22;880;52.452;8.656;2023-07-28T01:08:30;18.20;99.90
1766;DHT22;880;52.452;8.656;2023-07-28T01:11:03;18.20;99.90
1766;DHT22;880;52.452;8.656;2023-07-28T01:13:30;18.20;99.90
1766;DHT22;880;52.452;8.656;2023-07-28T01:15:57;18.20;99.90
1766;DHT22;880;52.452;8.656;2023-07-28T01:18:27;18.20;99.90
1766;DHT22;880;52.452;8.656;2023-07-28T01:20:56;18.20;99.90
1766;DHT22;880;52.452;8.656;2023-07-28T01:23:34;18.20;99.90
1766;DHT22;880;52.452;8.656;2023-07-28T01:26:12;18.20;99.90
1766;DHT22;880;52.452;8.656;2023-07-28T01:28:43;18.20;99.90
1766;DHT22;880;52.452;8.656;2023-07-28T01:31:10;18.20;99.90
1766;DHT22;880;52.452;8.656;2023-07-28T01:33:37;18.20;99.90
1766;DHT22;880;52.452;8.656;2023-07-28T01:36:04;18.20;99.90
1766;DHT22;880;52.452;8.656;2023-07-28T01:38:31;18.20;99.90
1766;DHT22;880;52.452;8.656;2023-07-28T01:40:58;18.20;99.90
1766;DHT22;880;52.452;8.656;2023-07-28T01:43:26;18.20;99.90
1766;DHT22;880;52.452;8.656;2023-07-28T01:45:53;18.20;99.90
1766;DHT22;880;52.452;8.656;2023-07-28T01:48:20;18.20;99.90
1766;DHT22;880;52.452;8.656;2023-07-28T01:50:47;18.20;99.90
1766;DHT22;880;52.452;8.656;2023-07-28T01:53:14;18.20;99.90
1766;DHT22;880;52.452;8.656;2023-07-28T01:55:41;18.20;99.90
1766;DHT22;880;52.452;8.656;2023-07-28T01:58:09;18.20;99.90
1766;DHT22;880;52.452;8.656;2023-07-28T02:00:36;18.30;99.90
1766;DHT22;880;52.452;8.656;2023-07-28T02:03:03;18.20;99.90
1766;DHT22;880;52.452;8.656;2023-07-28T02:05:31;18.30;99.90
1766;DHT22;880;52.452;8.656;2023-07-28T02:07:58;18.20;99.90
1766;DHT22;880;52.452;8.656;2023-07-28T02:10:28;18.20;99.90
1766;DHT22;880;52.452;8.656;2023-07-28T02:12:55;18.20;99.90
1766;DHT22;880;52.452;8.656;2023-07-28T02:15:22;18.20;99.90
1766;DHT22;880;52.452;8.656;2023-07-28T02:17:49;18.20;99.90
1766;DHT22;880;52.452;8.656;2023-07-28T02:20:16;18.20;99.90
1766;DHT22;880;52.452;8.656;2023-07-28T02:22:43;18.20;99.90
1766;DHT22;880;52.452;8.656;2023-07-28T02:25:10;18.20;99.90
1766;DHT22;880;52.452;8.656;2023-07-28T02:27:38;18.20;99.90
1766;DHT22;880;52.452;8.656;2023-07-28T02:30:06;18.20;99.90
1766;DHT22;880;52.452;8.656;2023-07-28T02:32:33;18.20;99.90
1766;DHT22;880;52.452;8.656;2023-07-28T02:35:00;18.20;99.90
1766;DHT22;880;52.452;8.656;2023-07-28T02:37:28;18.20;99.90
1766;DHT22;880;52.452;8.656;2023-07-28T02:39:55;18.20;99.90
1766;DHT22;880;52.452;8.656;2023-07-28T02:42:22;18.20;99.90
1766;DHT22;880;52.452;8.656;2023-07-28T02:44:50;18.20;99.90
1766;DHT22;880;52.452;8.656;2023-07-28T02:47:17;18.20;99.90
1766;DHT22;880;52.452;8.656;2023-07-28T02:49:44;18.20;99.90
1766;DHT22;880;52.452;8.656;2023-07-28T02:52:12;18.10;99.90
1766;DHT22;880;52.452;8.656;2023-07-28T02:54:40;18.20;99.90
1766;DHT22;880;52.452;8.656;2023-07-28T02:57:07;18.20;99.90
1766;DHT22;880;52.452;8.656;2023-07-28T02:59:35;18.20;99.90
1766;DHT22;880;52.452;8.656;2023-07-28T03:02:02;18.20;99.90
1766;DHT22;880;52.452;8.656;2023-07-28T03:04:29;18.20;99.90
1766;DHT22;880;52.452;8.656;2023-07-28T03:07:22;18.20;99.90
1766;DHT22;880;52.452;8.656;2023-07-28T03:09:56;18.20;99.90
1766;DHT22;880;52.452;8.656;2023-07-28T03:12:24;18.20;99.90
1766;DHT22;880;52.452;8.656;2023-07-28T03:14:51;18.20;99.90
1766;DHT22;880;52.452;8.656;2023-07-28T03:17:18;18.20;99.90
1766;DHT22;880;52.452;8.656;2023-07-28T03:19:45;18.10;99.90
1766;DHT22;880;52.452;8.656;2023-07-28T03:22:12;18.20;99.90
1766;DHT22;880;52.452;8.656;2023-07-28T03:24:39;18.20;99.90
1766;DHT22;880;52.452;8.656;2023-07-28T03:27:08;18.20;99.90
1766;DHT22;880;52.452;8.656;2023-07-28T03:29:35;18.20;99.90
1766;DHT22;880;52.452;8.656;2023-07-28T03:32:04;18.20;99.90
1766;DHT22;880;52.452;8.656;2023-07-28T03:34:31;18.20;99.90
1766;DHT22;880;52.452;8.656;2023-07-28T03:37:00;18.20;99.90
1766;DHT22;880;52.452;8.656;2023-07-28T03:39:27;18.20;99.90
1766;DHT22;880;52.452;8.656;2023-07-28T03:41:54;18.20;99.90
1766;DHT22;880;52.452;8.656;2023-07-28T03:44:22;18.10;99.90
1766;DHT22;880;52.452;8.656;2023-07-28T03:46:49;18.10;99.90
1766;DHT22;880;52.452;8.656;2023-07-28T03:49:16;18.10;99.90
1766;DHT22;880;52.452;8.656;2023-07-28T03:51:43;18.10;99.90
1766;DHT22;880;52.452;8.656;2023-07-28T03:54:10;18.00;99.90
1766;DHT22;880;52.452;8.656;2023-07-28T03:56:37;18.10;99.90
1766;DHT22;880;52.452;8.656;2023-07-28T03:59:04;18.00;99.90
1766;DHT22;880;52.452;8.656;2023-07-28T04:01:32;18.10;99.90
1766;DHT22;880;52.452;8.656;2023-07-28T04:03:59;18.00;99.90
1766;DHT22;880;52.452;8.656;2023-07-28T04:06:45;18.10;99.90
1766;DHT22;880;52.452;8.656;2023-07-28T04:09:14;18.00;99.90
1766;DHT22;880;52.452;8.656;2023-07-28T04:11:41;18.10;99.90
1766;DHT22;880;52.452;8.656;2023-07-28T04:14:09;18.10;99.90
1766;DHT22;880;52.452;8.656;2023-07-28T04:16:36;18.10;99.90
1766;DHT22;880;52.452;8.656;2023-07-28T04:19:03;18.10;99.90
1766;DHT22;880;52.452;8.656;2023-07-28T04:21:31;18.10;99.90
1766;DHT22;880;52.452;8.656;2023-07-28T04:23:58;18.10;99.90
1766;DHT22;880;52.452;8.656;2023-07-28T04:26:25;18.10;99.90
1766;DHT22;880;52.452;8.656;2023-07-28T04:28:59;18.10;99.90
1766;DHT22;880;52.452;8.656;2023-07-28T04:31:28;18.10;99.90
1766;DHT22;880;52.452;8.656;2023-07-28T04:34:05;18.10;99.90
1766;DHT22;880;52.452;8.656;2023-07-28T04:36:50;18.10;99.90
1766;DHT22;880;52.452;8.656;2023-07-28T04:39:22;18.10;99.90
1766;DHT22;880;52.452;8.656;2023-07-28T04:41:49;18.10;99.90
1766;DHT22;880;52.452;8.656;2023-07-28T04:44:17;18.20;99.90
1766;DHT22;880;52.452;8.656;2023-07-28T04:46:45;18.20;99.90
1766;DHT22;880;52.452;8.656;2023-07-28T04:49:14;18.20;99.90
1766;DHT22;880;52.452;8.656;2023-07-28T04:52:00;18.20;99.90
1766;DHT22;880;52.452;8.656;2023-07-28T04:54:27;18.20;99.90
1766;DHT22;880;52.452;8.656;2023-07-28T04:56:54;18.30;99.90
1766;DHT22;880;52.452;8.656;2023-07-28T04:59:27;18.30;99.90
1766;DHT22;880;52.452;8.656;2023-07-28T05:01:54;18.30;99.90
1766;DHT22;880;52.452;8.656;2023-07-28T05:04:21;18.30;99.90
1766;DHT22;880;52.452;8.656;2023-07-28T05:06:48;18.30;99.90
1766;DHT22;880;52.452;8.656;2023-07-28T05:09:15;18.30;99.90
1766;DHT22;880;52.452;8.656;2023-07-28T05:11:42;18.30;99.90
1766;DHT22;880;52.452;8.656;2023-07-28T05:14:13;18.30;99.90
1766;DHT22;880;52.452;8.656;2023-07-28T05:16:40;18.30;99.90
1766;DHT22;880;52.452;8.656;2023-07-28T05:19:11;18.30;99.90
1766;DHT22;880;52.452;8.656;2023-07-28T05:21:57;18.30;99.90
1766;DHT22;880;52.452;8.656;2023-07-28T05:24:33;18.40;99.90
1766;DHT22;880;52.452;8.656;2023-07-28T05:27:00;18.30;99.90
1766;DHT22;880;52.452;8.656;2023-07-28T05:29:27;18.40;99.90
1766;DHT22;880;52.452;8.656;2023-07-28T05:32:00;18.40;99.90
1766;DHT22;880;52.452;8.656;2023-07-28T05:34:35;18.40;99.90
1766;DHT22;880;52.452;8.656;2023-07-28T05:37:02;18.40;99.90
1766;DHT22;880;52.452;8.656;2023-07-28T05:39:32;18.40;99.90
1766;DHT22;880;52.452;8.656;2023-07-28T05:41:59;18.40;99.90
1766;DHT22;880;52.452;8.656;2023-07-28T05:44:26;18.40;99.90
1766;DHT22;880;52.452;8.656;2023-07-28T05:46:53;18.50;99.90
1766;DHT22;880;52.452;8.656;2023-07-28T05:49:21;18.50;99.90
1766;DHT22;880;52.452;8.656;2023-07-28T05:51:48;18.40;99.90
1766;DHT22;880;52.452;8.656;2023-07-28T05:54:16;18.50;99.90
1766;DHT22;880;52.452;8.656;2023-07-28T05:56:43;18.50;99.90
1766;DHT22;880;52.452;8.656;2023-07-28T05:59:10;18.50;99.90
1766;DHT22;880;52.452;8.656;2023-07-28T06:01:37;18.50;99.90
1766;DHT22;880;52.452;8.656;2023-07-28T06:04:10;18.50;99.90
1766;DHT22;880;52.452;8.656;2023-07-28T06:06:43;18.50;99.90
1766;DHT22;880;52.452;8.656;2023-07-28T06:09:12;18.50;99.90
1766;DHT22;880;52.452;8.656;2023-07-28T06:11:39;18.60;99.90
1766;DHT22;880;52.452;8.656;2023-07-28T06:14:06;18.50;99.90
1766;DHT22;880;52.452;8.656;2023-07-28T06:16:35;18.60;99.90
1766;DHT22;880;52.452;8.656;2023-07-28T06:19:02;18.70;99.90
1766;DHT22;880;52.452;8.656;2023-07-28T06:21:31;18.70;99.90
1766;DHT22;880;52.452;8.656;2023-07-28T06:23:59;18.80;99.90
1766;DHT22;880;52.452;8.656;2023-07-28T06:26:26;18.80;99.90
1766;DHT22;880;52.452;8.656;2023-07-28T06:28:53;18.80;99.90
1766;DHT22;880;52.452;8.656;2023-07-28T06:31:20;18.90;99.90
1766;DHT22;880;52.452;8.656;2023-07-28T06:33:48;19.00;99.90
1766;DHT22;880;52.452;8.656;2023-07-28T06:36:14;19.00;99.90
1766;DHT22;880;52.452;8.656;2023-07-28T06:38:41;19.00;99.90
1766;DHT22;880;52.452;8.656;2023-07-28T06:41:11;19.00;99.90
1766;DHT22;880;52.452;8.656;2023-07-28T06:43:38;19.00;99.90
1766;DHT22;880;52.452;8.656;2023-07-28T06:46:06;19.10;99.90
1766;DHT22;880;52.452;8.656;2023-07-28T06:48:33;19.20;99.90
1766;DHT22;880;52.452;8.656;2023-07-28T06:51:01;19.20;99.90
1766;DHT22;880;52.452;8.656;2023-07-28T06:53:28;19.30;99.90
1766;DHT22;880;52.452;8.656;2023-07-28T06:55:55;19.30;99.90
1766;DHT22;880;52.452;8.656;2023-07-28T06:58:22;19.40;99.90
1766;DHT22;880;52.452;8.656;2023-07-28T07:00:49;19.40;99.90
1766;DHT22;880;52.452;8.656;2023-07-28T07:03:16;19.50;99.90
1766;DHT22;880;52.452;8.656;2023-07-28T07:05:44;19.50;99.90
1766;DHT22;880;52.452;8.656;2023-07-28T07:08:11;19.50;99.90
1766;DHT22;880;52.452;8.656;2023-07-28T07:10:38;19.60;99.90
1766;DHT22;880;52.452;8.656;2023-07-28T07:13:05;19.70;99.90
1766;DHT22;880;52.452;8.656;2023-07-28T07:15:34;19.80;99.90
1766;DHT22;880;52.452;8.656;2023-07-28T07:18:02;19.80;99.90
1766;DHT22;880;52.452;8.656;2023-07-28T07:20:29;19.80;99.90
1766;DHT22;880;52.452;8.656;2023-07-28T07:22:56;19.80;99.90
1766;DHT22;880;52.452;8.656;2023-07-28T07:25:24;19.80;99.90
1766;DHT22;880;52.452;8.656;2023-07-28T07:27:51;19.90;99.90
1766;DHT22;880;52.452;8.656;2023-07-28T07:30:18;19.90;99.90
1766;DHT22;880;52.452;8.656;2023-07-28T07:32:45;19.90;99.90
1766;DHT22;880;52.452;8.656;2023-07-28T07:35:12;20.00;99.90
1766;DHT22;880;52.452;8.656;2023-07-28T07:37:39;20.20;99.90
1766;DHT22;880;52.452;8.656;2023-07-28T07:40:07;20.30;99.90
1766;DHT22;880;52.452;8.656;2023-07-28T07:42:50;20.40;99.90
1766;DHT22;880;52.452;8.656;2023-07-28T07:45:18;20.40;99.90
1766;DHT22;880;52.452;8.656;2023-07-28T07:47:45;20.30;99.90
1766;DHT22;880;52.452;8.656;2023-07-28T07:50:13;20.30;99.90
1766;DHT22;880;52.452;8.656;2023-07-28T07:52:40;20.30;99.90
1766;DHT22;880;52.452;8.656;2023-07-28T07:55:09;20.20;99.90
1766;DHT22;880;52.452;8.656;2023-07-28T07:57:39;20.20;99.90
1766;DHT22;880;52.452;8.656;2023-07-28T08:00:07;20.30;99.90
1766;DHT22;880;52.452;8.656;2023-07-28T08:02:41;20.40;99.90
1766;DHT22;880;52.452;8.656;2023-07-28T08:05:12;20.60;99.90
1766;DHT22;880;52.452;8.656;2023-07-28T08:07:39;20.70;99.90
1766;DHT22;880;52.452;8.656;2023-07-28T08:10:06;20.80;99.90
1766;DHT22;880;52.452;8.656;2023-07-28T08:12:33;21.00;99.90
1766;DHT22;880;52.452;8.656;2023-07-28T08:15:01;21.10;99.90
1766;DHT22;880;52.452;8.656;2023-07-28T08:17:28;21.10;99.90
1766;DHT22;880;52.452;8.656;2023-07-28T08:19:55;21.10;99.90
1766;DHT22;880;52.452;8.656;2023-07-28T08:22:22;21.10;99.90
1766;DHT22;880;52.452;8.656;2023-07-28T08:24:49;21.20;99.90
1766;DHT22;880;52.452;8.656;2023-07-28T08:27:16;21.20;99.90
1766;DHT22;880;52.452;8.656;2023-07-28T08:29:43;21.30;99.90
1766;DHT22;880;52.452;8.656;2023-07-28T08:32:10;21.40;99.90
1766;DHT22;880;52.452;8.656;2023-07-28T08:34:38;21.40;99.90
1766;DHT22;880;52.452;8.656;2023-07-28T08:37:05;21.40;99.90
1766;DHT22;880;52.452;8.656;2023-07-28T08:39:32;21.30;99.90
1766;DHT22;880;52.452;8.656;2023-07-28T08:42:00;21.20;99.90
1766;DHT22;880;52.452;8.656;2023-07-28T08:44:32;21.20;99.90
1766;DHT22;880;52.452;8.656;2023-07-28T08:47:01;21.20;99.90
1766;DHT22;880;52.452;8.656;2023-07-28T08:49:28;21.40;99.90
1766;DHT22;880;52.452;8.656;2023-07-28T08:51:59;21.70;99.90
1766;DHT22;880;52.452;8.656;2023-07-28T08:54:27;21.90;99.90
1766;DHT22;880;52.452;8.656;2023-07-28T08:56:54;22.00;99.90
1766;DHT22;880;52.452;8.656;2023-07-28T08:59:25;22.10;99.90
1766;DHT22;880;52.452;8.656;2023-07-28T09:01:55;22.10;99.90
1766;DHT22;880;52.452;8.656;2023-07-28T09:04:23;22.20;99.90
1766;DHT22;880;52.452;8.656;2023-07-28T09:06:51;22.20;99.90
1766;DHT22;880;52.452;8.656;2023-07-28T09:09:20;22.20;99.90
1766;DHT22;880;52.452;8.656;2023-07-28T09:11:53;22.10;99.90
1766;DHT22;880;52.452;8.656;2023-07-28T09:14:22;22.00;99.90
1766;DHT22;880;52.452;8.656;2023-07-28T09:16:50;21.90;99.90
1766;DHT22;880;52.452;8.656;2023-07-28T09:19:19;21.90;99.90
1766;DHT22;880;52.452;8.656;2023-07-28T09:21:57;21.80;99.90
1766;DHT22;880;52.452;8.656;2023-07-28T09:24:33;21.80;99.90
1766;DHT22;880;52.452;8.656;2023-07-28T09:27:01;21.70;99.90
1766;DHT22;880;52.452;8.656;2023-07-28T09:29:29;21.60;99.90
1766;DHT22;880;52.452;8.656;2023-07-28T09:32:06;21.50;99.90
1766;DHT22;880;52.452;8.656;2023-07-28T09:34:33;21.50;99.90
1766;DHT22;880;52.452;8.656;2023-07-28T09:37:00;21.50;99.90
1766;DHT22;880;52.452;8.656;2023-07-28T09:39:32;21.50;99.90
1766;DHT22;880;52.452;8.656;2023-07-28T09:42:01;21.50;99.90
1766;DHT22;880;52.452;8.656;2023-07-28T09:44:29;21.50;99.90
1766;DHT22;880;52.452;8.656;2023-07-28T09:46:57;21.50;99.90
1766;DHT22;880;52.452;8.656;2023-07-28T09:49:28;21.60;99.90
1766;DHT22;880;52.452;8.656;2023-07-28T09:52:03;21.60;99.90
1766;DHT22;880;52.452;8.656;2023-07-28T09:54:37;21.60;99.90
1766;DHT22;880;52.452;8.656;2023-07-28T09:57:10;21.60;99.90
1766;DHT22;880;52.452;8.656;2023-07-28T09:59:42;21.70;99.90
1766;DHT22;880;52.452;8.656;2023-07-28T10:02:12;21.80;99.90
1766;DHT22;880;52.452;8.656;2023-07-28T10:04:39;21.90;99.90
1766;DHT22;880;52.452;8.656;2023-07-28T10:07:07;22.10;99.90
1766;DHT22;880;52.452;8.656;2023-07-28T10:09:36;22.40;99.90
1766;DHT22;880;52.452;8.656;2023-07-28T10:12:04;22.60;99.90
1766;DHT22;880;52.452;8.656;2023-07-28T10:14:36;22.70;99.90
1766;DHT22;880;52.452;8.656;2023-07-28T10:17:06;22.90;99.90
1766;DHT22;880;52.452;8.656;2023-07-28T10:19:42;23.20;99.90
1766;DHT22;880;52.452;8.656;2023-07-28T10:22:11;23.30;99.90
1766;DHT22;880;52.452;8.656;2023-07-28T10:24:58;23.30;99.90
1766;DHT22;880;52.452;8.656;2023-07-28T10:30:05;23.30;99.90
1766;DHT22;880;52.452;8.656;2023-07-28T10:32:43;23.30;99.90
1766;DHT22;880;52.452;8.656;2023-07-28T10:37:44;23.20;99.90
1766;DHT22;880;52.452;8.656;2023-07-28T10:40:23;23.20;99.90
1766;DHT22;880;52.452;8.656;2023-07-28T10:42:58;23.30;99.90
1766;DHT22;880;52.452;8.656;2023-07-28T10:45:27;23.30;99.90
1766;DHT22;880;52.452;8.656;2023-07-28T10:47:56;23.30;99.90
1766;DHT22;880;52.452;8.656;2023-07-28T10:50:30;23.30;99.90
1766;DHT22;880;52.452;8.656;2023-07-28T10:52:58;23.50;99.90
1766;DHT22;880;52.452;8.656;2023-07-28T10:55:26;23.80;99.90
1766;DHT22;880;52.452;8.656;2023-07-28T10:57:54;24.00;99.90
1766;DHT22;880;52.452;8.656;2023-07-28T11:00:22;24.00;99.90
1766;DHT22;880;52.452;8.656;2023-07-28T11:02:54;24.00;99.90
1766;DHT22;880;52.452;8.656;2023-07-28T11:07:56;23.90;99.90
1766;DHT22;880;52.452;8.656;2023-07-28T11:10:24;23.70;99.90
1766;DHT22;880;52.452;8.656;2023-07-28T11:12:52;23.60;99.90
1766;DHT22;880;52.452;8.656;2023-07-28T11:15:19;23.50;99.90
1766;DHT22;880;52.452;8.656;2023-07-28T11:17:50;23.50;99.90
1766;DHT22;880;52.452;8.656;2023-07-28T11:20:20;23.50;99.90
1766;DHT22;880;52.452;8.656;2023-07-28T11:22:52;23.50;99.90
1766;DHT22;880;52.452;8.656;2023-07-28T11:25:28;23.50;99.90
1766;DHT22;880;52.452;8.656;2023-07-28T11:27:56;23.50;99.90
1766;DHT22;880;52.452;8.656;2023-07-28T11:30:24;23.40;99.90
1766;DHT22;880;52.452;8.656;2023-07-28T11:32:52;23.40;99.90
1766;DHT22;880;52.452;8.656;2023-07-28T11:35:21;23.60;99.90
1766;DHT22;880;52.452;8.656;2023-07-28T11:37:53;23.90;99.90
1766;DHT22;880;52.452;8.656;2023-07-28T11:40:21;24.20;99.90
1766;DHT22;880;52.452;8.656;2023-07-28T11:42:51;24.30;99.90
1766;DHT22;880;52.452;8.656;2023-07-28T11:45:21;24.30;99.90
1766;DHT22;880;52.452;8.656;2023-07-28T11:47:59;24.20;99.90
1766;DHT22;880;52.452;8.656;2023-07-28T11:50:30;24.00;99.90
1766;DHT22;880;52.452;8.656;2023-07-28T11:53:01;23.80;99.90
1766;DHT22;880;52.452;8.656;2023-07-28T11:55:29;23.60;99.90
1766;DHT22;880;52.452;8.656;2023-07-28T11:57:56;23.80;99.90
1766;DHT22;880;52.452;8.656;2023-07-28T12:00:35;24.20;99.90
1766;DHT22;880;52.452;8.656;2023-07-28T12:03:10;24.40;99.90
1766;DHT22;880;52.452;8.656;2023-07-28T12:05:41;24.50;99.90
1766;DHT22;880;52.452;8.656;2023-07-28T12:08:13;24.70;99.90
1766;DHT22;880;52.452;8.656;2023-07-28T12:10:54;25.00;99.90
1766;DHT22;880;52.452;8.656;2023-07-28T12:13:24;25.30;99.90
1766;DHT22;880;52.452;8.656;2023-07-28T12:15:56;25.30;99.90
1766;DHT22;880;52.452;8.656;2023-07-28T12:18:29;25.40;99.90
1766;DHT22;880;52.452;8.656;2023-07-28T12:21:00;25.40;99.90
1766;DHT22;880;52.452;8.656;2023-07-28T12:23:27;25.60;99.90
1766;DHT22;880;52.452;8.656;2023-07-28T12:25:57;25.50;99.90
1766;DHT22;880;52.452;8.656;2023-07-28T12:28:25;25.40;99.90
1766;DHT22;880;52.452;8.656;2023-07-28T12:30:52;25.60;99.90
1766;DHT22;880;52.452;8.656;2023-07-28T12:33:23;25.90;99.90
1766;DHT22;880;52.452;8.656;2023-07-28T12:36:04;26.20;99.90
1766;DHT22;880;52.452;8.656;2023-07-28T12:38:35;26.20;99.90
1766;DHT22;880;52.452;8.656;2023-07-28T12:41:05;25.80;99.90
1766;DHT22;880;52.452;8.656;2023-07-28T12:43:35;25.80;99.90
1766;DHT22;880;52.452;8.656;2023-07-28T12:46:05;25.60;99.90
1766;DHT22;880;52.452;8.656;2023-07-28T12:48:35;25.40;99.90
1766;DHT22;880;52.452;8.656;2023-07-28T12:51:13;25.30;99.90
1766;DHT22;880;52.452;8.656;2023-07-28T12:54:00;25.00;99.90
1766;DHT22;880;52.452;8.656;2023-07-28T12:56:27;24.90;99.90
1766;DHT22;880;52.452;8.656;2023-07-28T12:58:57;24.80;99.90
1766;DHT22;880;52.452;8.656;2023-07-28T13:01:29;24.80;99.90
1766;DHT22;880;52.452;8.656;2023-07-28T13:03:56;24.80;99.90
1766;DHT22;880;52.452;8.656;2023-07-28T13:06:23;24.80;99.90
1766;DHT22;880;52.452;8.656;2023-07-28T13:08:50;24.80;99.90
1766;DHT22;880;52.452;8.656;2023-07-28T13:11:20;24.50;99.90
1766;DHT22;880;52.452;8.656;2023-07-28T13:13:47;24.30;99.90
1766;DHT22;880;52.452;8.656;2023-07-28T13:16:14;24.10;99.90
1766;DHT22;880;52.452;8.656;2023-07-28T13:18:43;23.90;99.90
1766;DHT22;880;52.452;8.656;2023-07-28T13:21:10;23.80;99.90
1766;DHT22;880;52.452;8.656;2023-07-28T13:23:39;23.60;99.90
1766;DHT22;880;52.452;8.656;2023-07-28T13:26:06;23.60;99.90
1766;DHT22;880;52.452;8.656;2023-07-28T13:28:33;23.60;99.90
1766;DHT22;880;52.452;8.656;2023-07-28T13:31:02;23.60;99.90
1766;DHT22;880;52.452;8.656;2023-07-28T13:33:30;23.80;99.90
1766;DHT22;880;52.452;8.656;2023-07-28T13:35:57;24.10;99.90
1766;DHT22;880;52.452;8.656;2023-07-28T13:38:24;24.50;99.90
1766;DHT22;880;52.452;8.656;2023-07-28T13:40:51;24.80;99.90
1766;DHT22;880;52.452;8.656;2023-07-28T13:43:18;24.90;99.90
1766;DHT22;880;52.452;8.656;2023-07-28T13:45:45;25.00;99.90
1766;DHT22;880;52.452;8.656;2023-07-28T13:48:12;25.20;99.90
1766;DHT22;880;52.452;8.656;2023-07-28T13:50:42;25.20;99.90
1766;DHT22;880;52.452;8.656;2023-07-28T13:53:20;25.30;99.90
1766;DHT22;880;52.452;8.656;2023-07-28T13:55:51;25.40;99.90
1766;DHT22;880;52.452;8.656;2023-07-28T13:58:21;25.50;99.90
1766;DHT22;880;52.452;8.656;2023-07-28T14:00:48;25.60;99.90
1766;DHT22;880;52.452;8.656;2023-07-28T14:03:15;25.60;99.90
1766;DHT22;880;52.452;8.656;2023-07-28T14:05:43;25.80;99.90
1766;DHT22;880;52.452;8.656;2023-07-28T14:08:10;25.90;99.90
1766;DHT22;880;52.452;8.656;2023-07-28T14:10:37;25.90;99.90
1766;DHT22;880;52.452;8.656;2023-07-28T14:13:05;26.10;99.90
1766;DHT22;880;52.452;8.656;2023-07-28T14:15:32;26.30;99.90
1766;DHT22;880;52.452;8.656;2023-07-28T14:18:00;26.50;99.90
1766;DHT22;880;52.452;8.656;2023-07-28T14:20:27;26.50;99.90
1766;DHT22;880;52.452;8.656;2023-07-28T14:22:54;26.50;99.90
1766;DHT22;880;52.452;8.656;2023-07-28T14:25:21;26.40;99.90
1766;DHT22;880;52.452;8.656;2023-07-28T14:27:48;26.50;99.90
1766;DHT22;880;52.452;8.656;2023-07-28T14:30:15;26.60;99.90
1766;DHT22;880;52.452;8.656;2023-07-28T14:32:42;26.70;99.90
1766;DHT22;880;52.452;8.656;2023-07-28T14:35:09;26.80;99.90
1766;DHT22;880;52.452;8.656;2023-07-28T14:37:36;26.70;99.90
1766;DHT22;880;52.452;8.656;2023-07-28T14:40:03;26.60;99.90
1766;DHT22;880;52.452;8.656;2023-07-28T14:42:31;26.70;99.90
1766;DHT22;880;52.452;8.656;2023-07-28T14:44:58;26.70;99.90
1766;DHT22;880;52.452;8.656;2023-07-28T14:47:24;26.80;99.90
1766;DHT22;880;52.452;8.656;2023-07-28T14:49:52;26.80;99.90
1766;DHT22;880;52.452;8.656;2023-07-28T14:52:19;26.90;99.90
1766;DHT22;880;52.452;8.656;2023-07-28T14:54:45;26.90;99.90
1766;DHT22;880;52.452;8.656;2023-07-28T14:57:12;27.00;99.90
1766;DHT22;880;52.452;8.656;2023-07-28T14:59:58;26.90;99.90
1766;DHT22;880;52.452;8.656;2023-07-28T15:02:25;26.80;99.90
1766;DHT22;880;52.452;8.656;2023-07-28T15:04:52;26.70;99.90
1766;DHT22;880;52.452;8.656;2023-07-28T15:07:19;26.80;99.90
1766;DHT22;880;52.452;8.656;2023-07-28T15:09:49;26.90;99.90
1766;DHT22;880;52.452;8.656;2023-07-28T15:12:16;27.00;99.90
1766;DHT22;880;52.452;8.656;2023-07-28T15:14:43;26.90;99.90
1766;DHT22;880;52.452;8.656;2023-07-28T15:17:10;26.70;99.90
1766;DHT22;880;52.452;8.656;2023-07-28T15:19:37;26.70;99.90
1766;DHT22;880;52.452;8.656;2023-07-28T15:22:04;26.80;99.90
1766;DHT22;880;52.452;8.656;2023-07-28T15:24:31;26.80;99.90
1766;DHT22;880;52.452;8.656;2023-07-28T15:26:58;26.90;99.90
1766;DHT22;880;52.452;8.656;2023-07-28T15:29:25;26.90;99.90
1766;DHT22;880;52.452;8.656;2023-07-28T15:31:52;26.70;99.90
1766;DHT22;880;52.452;8.656;2023-07-28T15:34:20;26.50;99.90
1766;DHT22;880;52.452;8.656;2023-07-28T15:36:48;26.40;99.90
1766;DHT22;880;52.452;8.656;2023-07-28T15:39:15;26.40;99.90
1766;DHT22;880;52.452;8.656;2023-07-28T15:41:42;26.50;99.90
1766;DHT22;880;52.452;8.656;2023-07-28T15:44:09;26.50;99.90
1766;DHT22;880;52.452;8.656;2023-07-28T15:46:36;26.60;99.90
1766;DHT22;880;52.452;8.656;2023-07-28T15:49:04;26.70;99.90
1766;DHT22;880;52.452;8.656;2023-07-28T15:51:31;26.60;99.90
1766;DHT22;880;52.452;8.656;2023-07-28T15:53:58;26.30;99.90
1766;DHT22;880;52.452;8.656;2023-07-28T15:56:25;26.30;99.90
1766;DHT22;880;52.452;8.656;2023-07-28T15:58:52;26.30;99.90
1766;DHT22;880;52.452;8.656;2023-07-28T16:01:19;26.30;99.90
1766;DHT22;880;52.452;8.656;2023-07-28T16:03:47;26.40;99.90
1766;DHT22;880;52.452;8.656;2023-07-28T16:06:14;26.50;99.90
1766;DHT22;880;52.452;8.656;2023-07-28T16:08:41;26.50;99.90
1766;DHT22;880;52.452;8.656;2023-07-28T16:11:08;26.50;99.90
1766;DHT22;880;52.452;8.656;2023-07-28T16:13:35;26.60;99.90
1766;DHT22;880;52.452;8.656;2023-07-28T16:16:02;26.60;99.90
1766;DHT22;880;52.452;8.656;2023-07-28T16:18:30;26.60;99.90
1766;DHT22;880;52.452;8.656;2023-07-28T16:20:57;26.60;99.90
1766;DHT22;880;52.452;8.656;2023-07-28T16:23:24;26.60;99.90
1766;DHT22;880;52.452;8.656;2023-07-28T16:25:51;26.50;99.90
1766;DHT22;880;52.452;8.656;2023-07-28T16:28:18;26.60;99.90
1766;DHT22;880;52.452;8.656;2023-07-28T16:30:45;26.60;99.90
1766;DHT22;880;52.452;8.656;2023-07-28T16:33:13;26.60;99.90
1766;DHT22;880;52.452;8.656;2023-07-28T16:35:40;26.60;99.90
1766;DHT22;880;52.452;8.656;2023-07-28T16:38:07;26.60;99.90